Terminal Aerodrome Forecast
Issued by NWS Amarillo, TX

Home | Current Version | Previous Version | Text Only | Print | Product List | Glossary On
Versions: 1 2 3 4 5 6 7 8 9 10 11 12 13 14
000
FTUS44 KAMA 290520
TAFAMA
TAF
KAMA 290520Z 2906/3006 14012KT P6SM FEW250
     FM291200 17012KT P6SM OVC020
     FM291800 18015G26KT P6SM SCT050 BKN250 PROB30 2918/2924 5SM
      TSRA BR BKN030CB
     FM300200 15015G25KT P6SM SCT090 BKN250=

USA.gov is the U.S. government's official web portal to all federal, state and local government web resources and services.